This is the latest recevied weather packets stored in our database for station/object DB8NZ-11. If no packets are shown the sender has not sent any weather packets the latest 10 day(s).
| Time | Temp. | Humidity | Pressure | Rain* | Wind** | Luminosity | Snow |
|---|---|---|---|---|---|---|---|
| 1777710811 | 28.33° C | 24% | 1027.4 hPa | - | - | - | - |
| 1777709910 | 27.78° C | 25% | 1027.4 hPa | - | - | - | - |
| 1777709010 | 28.89° C | 24% | 1027.7 hPa | - | - | - | - |
| 1777708110 | 28.89° C | 23% | 1027.8 hPa | - | - | - | - |
| 1777707210 | 27.78° C | 26% | 1027.9 hPa | - | - | - | - |
| 1777706310 | 22.22° C | 35% | 1028 hPa | - | - | - | - |
| 1777705410 | 15.56° C | 49% | 1028.3 hPa | - | - | - | - |
| 1777704510 | 13.89° C | 57% | 1028.4 hPa | - | - | - | - |
| 1777703610 | 12.22° C | 61% | 1028.5 hPa | - | - | - | - |
| 1777702710 | 11.11° C | 68% | 1028.4 hPa | - | - | - | - |
| 1777701810 | 9.44° C | 73% | 1028.5 hPa | - | - | - | - |
| 1777700910 | 8.33° C | 77% | 1028.7 hPa | - | - | - | - |
| 1777700009 | 7.22° C | 78% | 1028.8 hPa | - | - | - | - |
| 1777699109 | 6.11° C | 79% | 1028.8 hPa | - | - | - | - |
| 1777698209 | 5° C | 78% | 1028.8 hPa | - | - | - | - |
| 1777697309 | 5° C | 78% | 1028.8 hPa | - | - | - | - |
| 1777696408 | 5° C | 72% | 1028.8 hPa | - | - | - | - |
| 1777695508 | 4.44° C | 73% | 1028.9 hPa | - | - | - | - |
| 1777694608 | 4.44° C | 74% | 1029 hPa | - | - | - | - |
| 1777693708 | 5° C | 74% | 1028.9 hPa | - | - | - | - |
| 1777692808 | 5° C | 73% | 1028.9 hPa | - | - | - | - |
| 1777691908 | 5° C | 73% | 1029.1 hPa | - | - | - | - |
| 1777691008 | 5° C | 74% | 1029.2 hPa | - | - | - | - |
| 1777690107 | 5° C | 73% | 1029.3 hPa | - | - | - | - |
| 1777689207 | 5° C | 73% | 1029.4 hPa | - | - | - | - |
* Rain since midnight (hover to see other rain measurements)
** Current wind speed in m/s (hover to see current wind gust speed)